CMA CGM La Boussole — A8FZ6 — position and weather

sailwx.info

Track history (hours):
 
Tides and Currents Weather Stations Pressure Air Temp Water Temp Dewpoint Dewpoint Depression Visibility Wind Speed Wind Dir Waves Ship Positions

CMA CGM La Boussole

Last reported at 2018-May-26 03:00 UTC. Time now 2018-May-26 08:02 UTC.
Position N 43°21' E 005°20'.

Length 210.1 m; beam 30.2 m; draft 11.5 m.

Type: Cargo ship. MMSI: 636017045.

Date/timePositionNaut miles runAvg speedWind from/ knotsBaromVisibWave heightAir tempDewpointWater temp
2018-May-26 03:00N 43°21' E 005°20'1 2.0
2018-May-26 02:30N 43°21' E 005°19'1 2.1
2018-May-26 01:55N 43°21' E 005°17'0 0.0
2018-May-26 01:28N 43°21' E 005°17'0 0.0
2018-May-26 00:55N 43°21' E 005°17'0 0.0
2018-May-26 00:25N 43°21' E 005°17'0 0.1
2018-May-25 23:55N 43°21' E 005°17'0 0.0
2018-May-25 23:25N 43°21' E 005°17'0 0.0
2018-May-25 22:55N 43°21' E 005°17'0 0.0
2018-May-25 22:28N 43°21' E 005°17'0 0.0
2018-May-25 21:58N 43°21' E 005°17'0 0.0
2018-May-25 21:28N 43°21' E 005°17'0 0.0
2018-May-25 20:55N 43°21' E 005°17'0 0.0
2018-May-25 20:28N 43°21' E 005°17'0 0.1
2018-May-25 19:43N 43°21' E 005°17'0 0.2
2018-May-25 19:22N 43°21' E 005°17'0 0.2
2018-May-25 18:58N 43°21' E 005°17'0 0.1
2018-May-25 18:28N 43°21' E 005°17'0 0.2
2018-May-25 17:19N 43°21' E 005°17'0 0.0
2018-May-25 16:58N 43°21' E 005°17'0 0.0
2018-May-25 16:22N 43°21' E 005°17'0 0.0
2018-May-25 15:52N 43°21' E 005°17'0 0.1
2018-May-25 15:19N 43°21' E 005°17'0 0.1
2018-May-25 14:58N 43°21' E 005°17'0 0.1
2018-May-25 13:34N 43°21' E 005°17'0 0.4
2018-May-25 13:30N 43°21' E 005°17'2 3.8
2018-May-25 13:00N 43°19' E 005°16'510.8
2018-May-25 12:30N 43°15' E 005°11'612.0
2018-May-25 11:59N 43°09' E 005°11'19 9.8
2018-May-25 10:06N 42°59' E 005°32'54 9.8
2018-May-25 04:33N 43°01' E 006°47'011.2
2018-May-25 04:30N 43°01' E 006°47'1210.8
2018-May-25 03:26N 43°08' E 007°01'410.3
2018-May-25 03:00N 43°11' E 007°05'610.1
2018-May-25 02:26N 43°14' E 007°12'410.1
2018-May-25 02:00N 43°17' E 007°17'510.2
2018-May-25 01:30N 43°20' E 007°22'510.3
2018-May-25 00:59N 43°23' E 007°28'510.2
2018-May-25 00:27N 43°26' E 007°34'3810.2
2018-May-24 20:40N 43°49' E 008°17'210.3
2018-May-24 20:30N 43°50' E 008°19'710.3
2018-May-24 19:48N 43°55' E 008°26'310.5
2018-May-24 19:30N 43°57' E 008°29'813.8
2018-May-24 18:57N 44°03' E 008°36'614.1
2018-May-24 18:30N 44°08' E 008°42'714.0
2018-May-24 18:00N 44°13' E 008°48'713.9
2018-May-24 17:30N 44°18' E 008°55'510.2
2018-May-24 17:00N 44°23' E 008°57'3 5.2
2018-May-24 16:30N 44°24' E 008°54'0 0.2
2018-May-24 16:00N 44°24' E 008°54'0 0.0
2018-May-24 15:30N 44°24' E 008°54'0 0.0
2018-May-24 15:00N 44°24' E 008°54'0 0.0
2018-May-24 14:30N 44°24' E 008°54'0 0.0
2018-May-24 14:00N 44°24' E 008°54'0 0.0
2018-May-24 13:30N 44°24' E 008°54'0 0.0
2018-May-24 08:57N 44°24' E 008°54'0 0.0
2018-May-24 08:30N 44°24' E 008°54'0 0.0
2018-May-24 08:00N 44°24' E 008°54'0 0.0
2018-May-24 07:30N 44°24' E 008°54'0 0.0
2018-May-24 07:00N 44°24' E 008°54'0 0.0
2018-May-24 06:30N 44°24' E 008°54'0 0.0
2018-May-24 06:00N 44°24' E 008°54'0 0.0
2018-May-24 05:30N 44°24' E 008°54'0 0.0
2018-May-24 05:00N 44°24' E 008°54'0 0.0
2018-May-24 04:27N 44°24' E 008°54'0 0.4
2018-May-24 04:00N 44°24' E 008°54'2 4.5
2018-May-24 03:30N 44°23' E 008°57'2 4.9
2018-May-24 03:00N 44°21' E 008°58'5 9.4
2018-May-24 02:30N 44°17' E 009°02'713.5
2018-May-24 02:00N 44°12' E 009°08'714.3
2018-May-24 01:30N 44°07' E 009°15'714.4
2018-May-24 01:00N 44°01' E 009°22'714.1
2018-May-24 00:30N 43°56' E 009°28'714.2
2018-May-24 00:00N 43°51' E 009°34'714.0
2018-May-23 23:30N 43°45' E 009°39'714.0
2018-May-23 23:00N 43°39' E 009°45'713.6
2018-May-23 22:30N 43°34' E 009°51'713.7
2018-May-23 22:00N 43°31' E 009°59'714.0
2018-May-23 21:30N 43°31' E 010°09'611.6
2018-May-23 21:00N 43°32' E 010°17'2 4.5
2018-May-23 20:31N 43°34' E 010°18'0 0.8
2018-May-23 19:58N 43°34' E 010°18'0 0.0
2018-May-23 19:28N 43°34' E 010°18'0 0.0
2018-May-23 18:58N 43°34' E 010°18'0 0.0
2018-May-23 18:28N 43°34' E 010°18'0 0.0
2018-May-23 17:58N 43°34' E 010°18'0 0.0
2018-May-23 17:28N 43°34' E 010°18'0 0.0
2018-May-23 16:58N 43°34' E 010°18'0 0.0
2018-May-23 16:28N 43°34' E 010°18'0 0.0
2018-May-23 15:58N 43°34' E 010°18'0 0.0
2018-May-23 15:28N 43°34' E 010°18'0 0.0
2018-May-23 14:58N 43°34' E 010°18'0 0.0
2018-May-23 14:28N 43°34' E 010°18'0 0.0
2018-May-23 13:58N 43°34' E 010°18'0 0.0
2018-May-23 13:28N 43°34' E 010°18'0 0.0
2018-May-23 12:58N 43°34' E 010°18'0 0.0
2018-May-23 12:25N 43°34' E 010°18'0 0.0
2018-May-23 11:49N 43°34' E 010°18'0 0.0
2018-May-23 11:28N 43°34' E 010°18'0 0.0
2018-May-23 10:55N 43°34' E 010°18'0 0.0
2018-May-23 10:28N 43°34' E 010°18'0 0.0
2018-May-23 10:00N 43°34' E 010°18'0 0.0
2018-May-23 09:30N 43°34' E 010°18'0 0.0
2018-May-23 08:57N 43°34' E 010°18'0 0.0
2018-May-23 08:30N 43°34' E 010°18'0 0.0
2018-May-23 08:00N 43°34' E 010°18'0 0.0
2018-May-23 07:30N 43°34' E 010°18'0 0.0
2018-May-23 07:00N 43°34' E 010°18'0 0.0
2018-May-23 06:27N 43°34' E 010°18'0 0.0
2018-May-23 06:00N 43°34' E 010°18'0 0.0
2018-May-23 05:30N 43°34' E 010°18'0 0.0
2018-May-23 05:00N 43°34' E 010°18'0 0.0
2018-May-23 04:30N 43°34' E 010°18'0 0.0
2018-May-23 04:00N 43°34' E 010°18'2 3.6
2018-May-23 03:30N 43°33' E 010°17'2 4.0
2018-May-23 03:00N 43°31' E 010°16'4 8.8
2018-May-23 02:30N 43°28' E 010°11'713.6
2018-May-23 02:00N 43°23' E 010°05'816.8
2018-May-23 01:30N 43°18' E 009°56'816.6
2018-May-23 01:00N 43°16' E 009°45'816.8
2018-May-23 00:30N 43°14' E 009°34'917.2
2018-May-23 00:00N 43°12' E 009°23'917.5
2018-May-22 23:30N 43°09' E 009°11'917.5
2018-May-22 23:00N 43°07' E 008°60'32717.7
2018-May-22 04:28N 40°04' E 002°57'1219.0
2018-May-22 03:49N 39°57' E 002°43'618.8
2018-May-22 03:30N 39°54' E 002°37'8418.5
2018-May-21 22:59N 39°06' E 001°07'7818.4
2018-May-21 18:44N 38°07' E 000°02'2818.9
2018-May-21 17:16N 37°45' W 000°19'519.8
2018-May-21 17:00N 37°41' W 000°23'1019.9
2018-May-21 16:30N 37°33' W 000°31'1019.6
2018-May-21 15:59N 37°26' W 000°40'919.0
2018-May-21 15:30N 37°20' W 000°49'1018.7
2018-May-21 14:58N 37°13' W 000°58'918.6
2018-May-21 14:30N 37°07' W 001°06'19718.9
2018-May-21 04:02N 36°02' W 004°58'119.9
2018-May-21 04:00N 36°02' W 004°59'1021.1
2018-May-21 03:30N 36°01' W 005°12'918.3
2018-May-21 03:00N 36°04' W 005°23'4 8.7
2018-May-21 02:30N 36°07' W 005°25'0 0.4
2018-May-21 01:58N 36°08' W 005°25'0 0.0
2018-May-21 01:25N 36°08' W 005°25'0 0.0
2018-May-21 00:55N 36°08' W 005°25'0 0.0
2018-May-21 00:25N 36°08' W 005°25'0 0.0
2018-May-20 23:49N 36°08' W 005°25'0 0.0
2018-May-20 23:25N 36°08' W 005°25'0 0.0
2018-May-20 22:58N 36°08' W 005°25'0 0.0
2018-May-20 22:25N 36°08' W 005°25'0 0.0
2018-May-20 21:55N 36°08' W 005°25'0 0.0
2018-May-20 21:28N 36°08' W 005°25'0 0.0
2018-May-20 20:58N 36°08' W 005°25'0 0.0
2018-May-20 20:25N 36°08' W 005°25'0 0.0
2018-May-20 19:58N 36°08' W 005°25'0 0.0
2018-May-20 19:19N 36°08' W 005°25'0 0.0
2018-May-20 18:58N 36°08' W 005°25'0 0.0
2018-May-20 18:28N 36°08' W 005°25'0 0.0
2018-May-20 17:58N 36°08' W 005°25'0 0.0
2018-May-20 17:28N 36°08' W 005°25'0 0.0
2018-May-20 16:52N 36°08' W 005°25'0 0.0
2018-May-20 16:30N 36°08' W 005°25'0 0.0
2018-May-20 16:00N 36°08' W 005°25'0 0.0
2018-May-20 15:30N 36°08' W 005°25'0 0.0
2018-May-20 15:00N 36°08' W 005°25'0 0.0
2018-May-20 14:27N 36°08' W 005°25'0 0.0
2018-May-20 13:57N 36°08' W 005°25'0 0.0
2018-May-20 13:27N 36°08' W 005°25'0 0.0
2018-May-20 12:57N 36°08' W 005°25'0 0.0
2018-May-20 12:30N 36°08' W 005°25'0 0.0
2018-May-20 12:00N 36°08' W 005°25'1 1.1
2018-May-20 11:30N 36°08' W 005°25'1 2.8
2018-May-20 11:00N 36°08' W 005°24'4 8.3
2018-May-20 10:30N 36°04' W 005°23'4 8.3
2018-May-20 10:01N 35°60' W 005°25'917.8
2018-May-20 09:30N 35°56' W 005°35'1020.7
2018-May-20 09:01N 35°55' W 005°47'1220.8
2018-May-20 08:26N 35°54' W 006°02'  
Track history (hours):
 
Tides and Currents Weather Stations Pressure Air Temp Water Temp Dewpoint Dewpoint Depression Visibility Wind Speed Wind Dir Waves Ship Positions

CMA CGM La Boussole

Last reported at 2018-May-26 03:00 UTC. Time now 2018-May-26 08:02 UTC.
Position N 43°21' E 005°20'.

Length 210.1 m; beam 30.2 m; draft 11.5 m.

Type: Cargo ship. MMSI: 636017045.

Date/timePositionNaut miles runAvg speedWind from/ knotsBaromVisibWave heightAir tempDewpointWater temp
2018-May-26 03:00N 43°21' E 005°20'1 2.0
2018-May-26 02:30N 43°21' E 005°19'1 2.1
2018-May-26 01:55N 43°21' E 005°17'0 0.0
2018-May-26 01:28N 43°21' E 005°17'0 0.0
2018-May-26 00:55N 43°21' E 005°17'0 0.0
2018-May-26 00:25N 43°21' E 005°17'0 0.1
2018-May-25 23:55N 43°21' E 005°17'0 0.0
2018-May-25 23:25N 43°21' E 005°17'0 0.0
2018-May-25 22:55N 43°21' E 005°17'0 0.0
2018-May-25 22:28N 43°21' E 005°17'0 0.0
2018-May-25 21:58N 43°21' E 005°17'0 0.0
2018-May-25 21:28N 43°21' E 005°17'0 0.0
2018-May-25 20:55N 43°21' E 005°17'0 0.0
2018-May-25 20:28N 43°21' E 005°17'0 0.1
2018-May-25 19:43N 43°21' E 005°17'0 0.2
2018-May-25 19:22N 43°21' E 005°17'0 0.2
2018-May-25 18:58N 43°21' E 005°17'0 0.1
2018-May-25 18:28N 43°21' E 005°17'0 0.2
2018-May-25 17:19N 43°21' E 005°17'0 0.0
2018-May-25 16:58N 43°21' E 005°17'0 0.0
2018-May-25 16:22N 43°21' E 005°17'0 0.0
2018-May-25 15:52N 43°21' E 005°17'0 0.1
2018-May-25 15:19N 43°21' E 005°17'0 0.1
2018-May-25 14:58N 43°21' E 005°17'0 0.1
2018-May-25 13:34N 43°21' E 005°17'0 0.4
2018-May-25 13:30N 43°21' E 005°17'2 3.8
2018-May-25 13:00N 43°19' E 005°16'510.8
2018-May-25 12:30N 43°15' E 005°11'612.0
2018-May-25 11:59N 43°09' E 005°11'19 9.8
2018-May-25 10:06N 42°59' E 005°32'54 9.8
2018-May-25 04:33N 43°01' E 006°47'011.2
2018-May-25 04:30N 43°01' E 006°47'1210.8
2018-May-25 03:26N 43°08' E 007°01'410.3
2018-May-25 03:00N 43°11' E 007°05'610.1
2018-May-25 02:26N 43°14' E 007°12'410.1
2018-May-25 02:00N 43°17' E 007°17'510.2
2018-May-25 01:30N 43°20' E 007°22'510.3
2018-May-25 00:59N 43°23' E 007°28'510.2
2018-May-25 00:27N 43°26' E 007°34'3810.2
2018-May-24 20:40N 43°49' E 008°17'210.3
2018-May-24 20:30N 43°50' E 008°19'710.3
2018-May-24 19:48N 43°55' E 008°26'310.5
2018-May-24 19:30N 43°57' E 008°29'813.8
2018-May-24 18:57N 44°03' E 008°36'614.1
2018-May-24 18:30N 44°08' E 008°42'714.0
2018-May-24 18:00N 44°13' E 008°48'713.9
2018-May-24 17:30N 44°18' E 008°55'510.2
2018-May-24 17:00N 44°23' E 008°57'3 5.2
2018-May-24 16:30N 44°24' E 008°54'0 0.2
2018-May-24 16:00N 44°24' E 008°54'0 0.0
2018-May-24 15:30N 44°24' E 008°54'0 0.0
2018-May-24 15:00N 44°24' E 008°54'0 0.0
2018-May-24 14:30N 44°24' E 008°54'0 0.0
2018-May-24 14:00N 44°24' E 008°54'0 0.0
2018-May-24 13:30N 44°24' E 008°54'0 0.0
2018-May-24 08:57N 44°24' E 008°54'0 0.0
2018-May-24 08:30N 44°24' E 008°54'0 0.0
2018-May-24 08:00N 44°24' E 008°54'0 0.0
2018-May-24 07:30N 44°24' E 008°54'0 0.0
2018-May-24 07:00N 44°24' E 008°54'0 0.0
2018-May-24 06:30N 44°24' E 008°54'0 0.0
2018-May-24 06:00N 44°24' E 008°54'0 0.0
2018-May-24 05:30N 44°24' E 008°54'0 0.0
2018-May-24 05:00N 44°24' E 008°54'0 0.0
2018-May-24 04:27N 44°24' E 008°54'0 0.4
2018-May-24 04:00N 44°24' E 008°54'2 4.5
2018-May-24 03:30N 44°23' E 008°57'2 4.9
2018-May-24 03:00N 44°21' E 008°58'5 9.4
2018-May-24 02:30N 44°17' E 009°02'713.5
2018-May-24 02:00N 44°12' E 009°08'714.3
2018-May-24 01:30N 44°07' E 009°15'714.4
2018-May-24 01:00N 44°01' E 009°22'714.1
2018-May-24 00:30N 43°56' E 009°28'714.2
2018-May-24 00:00N 43°51' E 009°34'714.0
2018-May-23 23:30N 43°45' E 009°39'714.0
2018-May-23 23:00N 43°39' E 009°45'713.6
2018-May-23 22:30N 43°34' E 009°51'713.7
2018-May-23 22:00N 43°31' E 009°59'714.0
2018-May-23 21:30N 43°31' E 010°09'611.6
2018-May-23 21:00N 43°32' E 010°17'2 4.5
2018-May-23 20:31N 43°34' E 010°18'0 0.8
2018-May-23 19:58N 43°34' E 010°18'0 0.0
2018-May-23 19:28N 43°34' E 010°18'0 0.0
2018-May-23 18:58N 43°34' E 010°18'0 0.0
2018-May-23 18:28N 43°34' E 010°18'0 0.0
2018-May-23 17:58N 43°34' E 010°18'0 0.0
2018-May-23 17:28N 43°34' E 010°18'0 0.0
2018-May-23 16:58N 43°34' E 010°18'0 0.0
2018-May-23 16:28N 43°34' E 010°18'0 0.0
2018-May-23 15:58N 43°34' E 010°18'0 0.0
2018-May-23 15:28N 43°34' E 010°18'0 0.0
2018-May-23 14:58N 43°34' E 010°18'0 0.0
2018-May-23 14:28N 43°34' E 010°18'0 0.0
2018-May-23 13:58N 43°34' E 010°18'0 0.0
2018-May-23 13:28N 43°34' E 010°18'0 0.0
2018-May-23 12:58N 43°34' E 010°18'0 0.0
2018-May-23 12:25N 43°34' E 010°18'0 0.0
2018-May-23 11:49N 43°34' E 010°18'0 0.0
2018-May-23 11:28N 43°34' E 010°18'0 0.0
2018-May-23 10:55N 43°34' E 010°18'0 0.0
2018-May-23 10:28N 43°34' E 010°18'0 0.0
2018-May-23 10:00N 43°34' E 010°18'0 0.0
2018-May-23 09:30N 43°34' E 010°18'0 0.0
2018-May-23 08:57N 43°34' E 010°18'0 0.0
2018-May-23 08:30N 43°34' E 010°18'0 0.0
2018-May-23 08:00N 43°34' E 010°18'0 0.0
2018-May-23 07:30N 43°34' E 010°18'0 0.0
2018-May-23 07:00N 43°34' E 010°18'0 0.0
2018-May-23 06:27N 43°34' E 010°18'0 0.0
2018-May-23 06:00N 43°34' E 010°18'0 0.0
2018-May-23 05:30N 43°34' E 010°18'0 0.0
2018-May-23 05:00N 43°34' E 010°18'0 0.0
2018-May-23 04:30N 43°34' E 010°18'0 0.0
2018-May-23 04:00N 43°34' E 010°18'2 3.6
2018-May-23 03:30N 43°33' E 010°17'2 4.0
2018-May-23 03:00N 43°31' E 010°16'4 8.8
2018-May-23 02:30N 43°28' E 010°11'713.6
2018-May-23 02:00N 43°23' E 010°05'816.8
2018-May-23 01:30N 43°18' E 009°56'816.6
2018-May-23 01:00N 43°16' E 009°45'816.8
2018-May-23 00:30N 43°14' E 009°34'917.2
2018-May-23 00:00N 43°12' E 009°23'917.5
2018-May-22 23:30N 43°09' E 009°11'917.5
2018-May-22 23:00N 43°07' E 008°60'32717.7
2018-May-22 04:28N 40°04' E 002°57'1219.0
2018-May-22 03:49N 39°57' E 002°43'618.8
2018-May-22 03:30N 39°54' E 002°37'8418.5
2018-May-21 22:59N 39°06' E 001°07'7818.4
2018-May-21 18:44N 38°07' E 000°02'2818.9
2018-May-21 17:16N 37°45' W 000°19'519.8
2018-May-21 17:00N 37°41' W 000°23'1019.9
2018-May-21 16:30N 37°33' W 000°31'1019.6
2018-May-21 15:59N 37°26' W 000°40'919.0
2018-May-21 15:30N 37°20' W 000°49'1018.7
2018-May-21 14:58N 37°13' W 000°58'918.6
2018-May-21 14:30N 37°07' W 001°06'19718.9
2018-May-21 04:02N 36°02' W 004°58'119.9
2018-May-21 04:00N 36°02' W 004°59'1021.1
2018-May-21 03:30N 36°01' W 005°12'918.3
2018-May-21 03:00N 36°04' W 005°23'4 8.7
2018-May-21 02:30N 36°07' W 005°25'0 0.4
2018-May-21 01:58N 36°08' W 005°25'0 0.0
2018-May-21 01:25N 36°08' W 005°25'0 0.0
2018-May-21 00:55N 36°08' W 005°25'0 0.0
2018-May-21 00:25N 36°08' W 005°25'0 0.0
2018-May-20 23:49N 36°08' W 005°25'0 0.0
2018-May-20 23:25N 36°08' W 005°25'0 0.0
2018-May-20 22:58N 36°08' W 005°25'0 0.0
2018-May-20 22:25N 36°08' W 005°25'0 0.0
2018-May-20 21:55N 36°08' W 005°25'0 0.0
2018-May-20 21:28N 36°08' W 005°25'0 0.0
2018-May-20 20:58N 36°08' W 005°25'0 0.0
2018-May-20 20:25N 36°08' W 005°25'0 0.0
2018-May-20 19:58N 36°08' W 005°25'0 0.0
2018-May-20 19:19N 36°08' W 005°25'0 0.0
2018-May-20 18:58N 36°08' W 005°25'0 0.0
2018-May-20 18:28N 36°08' W 005°25'0 0.0
2018-May-20 17:58N 36°08' W 005°25'0 0.0
2018-May-20 17:28N 36°08' W 005°25'0 0.0
2018-May-20 16:52N 36°08' W 005°25'0 0.0
2018-May-20 16:30N 36°08' W 005°25'0 0.0
2018-May-20 16:00N 36°08' W 005°25'0 0.0
2018-May-20 15:30N 36°08' W 005°25'0 0.0
2018-May-20 15:00N 36°08' W 005°25'0 0.0
2018-May-20 14:27N 36°08' W 005°25'0 0.0
2018-May-20 13:57N 36°08' W 005°25'0 0.0
2018-May-20 13:27N 36°08' W 005°25'0 0.0
2018-May-20 12:57N 36°08' W 005°25'0 0.0
2018-May-20 12:30N 36°08' W 005°25'0 0.0
2018-May-20 12:00N 36°08' W 005°25'1 1.1
2018-May-20 11:30N 36°08' W 005°25'1 2.8
2018-May-20 11:00N 36°08' W 005°24'4 8.3
2018-May-20 10:30N 36°04' W 005°23'4 8.3
2018-May-20 10:01N 35°60' W 005°25'917.8
2018-May-20 09:30N 35°56' W 005°35'1020.7
2018-May-20 09:01N 35°55' W 005°47'1220.8
2018-May-20 08:26N 35°54' W 006°02'  

Dump ship's entire track history